S 386 Casilo — OZZP — position and weather

sailwx.info

Track history (hours):
 
Tides and Currents Weather Stations Pressure Air Temp Water Temp Dewpoint Dewpoint Depression Visibility Wind Speed Wind Dir Waves Ship Positions

S 386 Casilo

Last reported at 2015-May-24 05:26 UTC. Time now 2015-May-24 07:21 UTC.
Position N 58°37' E 010°21'.

Length 24 m.

Type: Fishing. MMSI: 219948000.

Date/timePositionNaut miles runAvg speedWind from/ knotsBaromVisibWave heightAir tempDewpointWater temp
2015-May-24 05:26N 58°37' E 010°21'6 2.1
2015-May-24 02:29N 58°32' E 010°26'3 2.4
2015-May-24 01:24N 58°30' E 010°29'5 5.9
2015-May-24 00:33N 58°34' E 010°23'8 8.5
2015-May-23 23:33N 58°40' E 010°13'6 1.5
2015-May-23 19:33N 58°45' E 010°07'2 2.0
2015-May-23 18:30N 58°44' E 010°10'2 2.0
2015-May-23 17:33N 58°42' E 010°13'2 2.0
2015-May-23 16:33N 58°41' E 010°15'2 2.0
2015-May-23 15:27N 58°39' E 010°17'2 2.0
2015-May-23 14:33N 58°38' E 010°19'2 2.0
2015-May-23 13:21N 58°36' E 010°22'2 1.9
2015-May-23 12:33N 58°34' E 010°23'2 2.0
2015-May-23 11:33N 58°32' E 010°24'2 2.2
2015-May-23 10:33N 58°31' E 010°26'2 1.7
2015-May-23 09:33N 58°32' E 010°24'9 8.9
2015-May-23 08:33N 58°39' E 010°15'10 8.2
2015-May-23 07:18N 58°48' E 010°04'20 1.9
2015-May-22 20:33N 58°31' E 010°26'2 2.1
2015-May-22 19:33N 58°30' E 010°28'5 4.9
2015-May-22 18:33N 58°25' E 010°32'8 7.7
2015-May-22 17:33N 58°18' E 010°34'8 7.9
2015-May-22 16:33N 58°10' E 010°37'8 7.9
2015-May-22 15:33N 58°02' E 010°39'8 8.3
2015-May-22 14:33N 57°54' E 010°42'10 8.3
2015-May-22 13:20N 57°44' E 010°41'4 0.1
2015-May-21 10:07N 57°47' E 010°42'5 9.6
2015-May-21 09:33N 57°53' E 010°40'10 9.3
2015-May-21 08:31N 58°02' E 010°34'9 9.4
2015-May-21 07:33N 58°10' E 010°28'23 1.4
2015-May-20 15:24N 58°33' E 010°33'2 2.3
2015-May-20 14:33N 58°32' E 010°35'3 0.3
2015-May-20 02:18N 58°34' E 010°31'2 2.1
2015-May-20 01:33N 58°33' E 010°33'2 2.0
2015-May-20 00:33N 58°31' E 010°35'3 0.2
2015-May-19 11:04N 58°34' E 010°31'2 2.0
2015-May-19 10:13N 58°32' E 010°33'2 2.4
2015-May-19 09:33N 58°31' E 010°35'5 0.4
2015-May-18 21:31N 58°34' E 010°29'2 2.1
2015-May-18 20:31N 58°33' E 010°32'2 2.2
2015-May-18 19:31N 58°31' E 010°34'7 7.4
2015-May-18 18:33N 58°24' E 010°33'10 9.7
2015-May-18 17:33N 58°15' E 010°36'10 9.6
2015-May-18 16:33N 58°05' E 010°40'9 9.0
2015-May-18 15:33N 57°56' E 010°42'5 0.5
2015-May-18 06:22N 57°52' E 010°39'7 8.8
2015-May-18 05:33N 57°59' E 010°35'9 9.0
2015-May-18 04:33N 58°07' E 010°29'25 1.5
2015-May-17 11:28N 58°32' E 010°32'1 0.1
2015-May-16 21:31N 58°32' E 010°31'8 8.0
2015-May-16 20:33N 58°38' E 010°22'8 0.6
2015-May-16 07:29N 58°31' E 010°30'13 1.6
2015-May-15 23:31N 58°43' E 010°21'3 2.0
2015-May-15 22:13N 58°41' E 010°24'2 2.0
2015-May-15 21:04N 58°39' E 010°26'5 2.0
2015-May-15 18:22N 58°34' E 010°32'2 2.1
2015-May-15 17:31N 58°33' E 010°33'2 2.0
2015-May-15 16:31N 58°31' E 010°34'2 2.6
2015-May-15 15:33N 58°28' E 010°35'9 9.1
2015-May-15 14:33N 58°19' E 010°36'11 9.0
2015-May-15 13:20N 58°08' E 010°39'7 8.9
2015-May-15 12:33N 58°02' E 010°41'9 9.0
2015-May-15 11:33N 57°52' E 010°42'10 0.8
2015-May-14 22:33N 57°43' E 010°36'0 0.0
2015-May-14 20:27N 57°43' E 010°36'0 0.0
2015-May-14 15:21N 57°43' E 010°36'0 0.0
2015-May-14 14:27N 57°43' E 010°36'0 0.1
2015-May-14 12:27N 57°43' E 010°36'  
Track history (hours):
 
Tides and Currents Weather Stations Pressure Air Temp Water Temp Dewpoint Dewpoint Depression Visibility Wind Speed Wind Dir Waves Ship Positions

S 386 Casilo

Last reported at 2015-May-24 05:26 UTC. Time now 2015-May-24 07:21 UTC.
Position N 58°37' E 010°21'.

Length 24 m.

Type: Fishing. MMSI: 219948000.

Date/timePositionNaut miles runAvg speedWind from/ knotsBaromVisibWave heightAir tempDewpointWater temp
2015-May-24 05:26N 58°37' E 010°21'6 2.1
2015-May-24 02:29N 58°32' E 010°26'3 2.4
2015-May-24 01:24N 58°30' E 010°29'5 5.9
2015-May-24 00:33N 58°34' E 010°23'8 8.5
2015-May-23 23:33N 58°40' E 010°13'6 1.5
2015-May-23 19:33N 58°45' E 010°07'2 2.0
2015-May-23 18:30N 58°44' E 010°10'2 2.0
2015-May-23 17:33N 58°42' E 010°13'2 2.0
2015-May-23 16:33N 58°41' E 010°15'2 2.0
2015-May-23 15:27N 58°39' E 010°17'2 2.0
2015-May-23 14:33N 58°38' E 010°19'2 2.0
2015-May-23 13:21N 58°36' E 010°22'2 1.9
2015-May-23 12:33N 58°34' E 010°23'2 2.0
2015-May-23 11:33N 58°32' E 010°24'2 2.2
2015-May-23 10:33N 58°31' E 010°26'2 1.7
2015-May-23 09:33N 58°32' E 010°24'9 8.9
2015-May-23 08:33N 58°39' E 010°15'10 8.2
2015-May-23 07:18N 58°48' E 010°04'20 1.9
2015-May-22 20:33N 58°31' E 010°26'2 2.1
2015-May-22 19:33N 58°30' E 010°28'5 4.9
2015-May-22 18:33N 58°25' E 010°32'8 7.7
2015-May-22 17:33N 58°18' E 010°34'8 7.9
2015-May-22 16:33N 58°10' E 010°37'8 7.9
2015-May-22 15:33N 58°02' E 010°39'8 8.3
2015-May-22 14:33N 57°54' E 010°42'10 8.3
2015-May-22 13:20N 57°44' E 010°41'4 0.1
2015-May-21 10:07N 57°47' E 010°42'5 9.6
2015-May-21 09:33N 57°53' E 010°40'10 9.3
2015-May-21 08:31N 58°02' E 010°34'9 9.4
2015-May-21 07:33N 58°10' E 010°28'23 1.4
2015-May-20 15:24N 58°33' E 010°33'2 2.3
2015-May-20 14:33N 58°32' E 010°35'3 0.3
2015-May-20 02:18N 58°34' E 010°31'2 2.1
2015-May-20 01:33N 58°33' E 010°33'2 2.0
2015-May-20 00:33N 58°31' E 010°35'3 0.2
2015-May-19 11:04N 58°34' E 010°31'2 2.0
2015-May-19 10:13N 58°32' E 010°33'2 2.4
2015-May-19 09:33N 58°31' E 010°35'5 0.4
2015-May-18 21:31N 58°34' E 010°29'2 2.1
2015-May-18 20:31N 58°33' E 010°32'2 2.2
2015-May-18 19:31N 58°31' E 010°34'7 7.4
2015-May-18 18:33N 58°24' E 010°33'10 9.7
2015-May-18 17:33N 58°15' E 010°36'10 9.6
2015-May-18 16:33N 58°05' E 010°40'9 9.0
2015-May-18 15:33N 57°56' E 010°42'5 0.5
2015-May-18 06:22N 57°52' E 010°39'7 8.8
2015-May-18 05:33N 57°59' E 010°35'9 9.0
2015-May-18 04:33N 58°07' E 010°29'25 1.5
2015-May-17 11:28N 58°32' E 010°32'1 0.1
2015-May-16 21:31N 58°32' E 010°31'8 8.0
2015-May-16 20:33N 58°38' E 010°22'8 0.6
2015-May-16 07:29N 58°31' E 010°30'13 1.6
2015-May-15 23:31N 58°43' E 010°21'3 2.0
2015-May-15 22:13N 58°41' E 010°24'2 2.0
2015-May-15 21:04N 58°39' E 010°26'5 2.0
2015-May-15 18:22N 58°34' E 010°32'2 2.1
2015-May-15 17:31N 58°33' E 010°33'2 2.0
2015-May-15 16:31N 58°31' E 010°34'2 2.6
2015-May-15 15:33N 58°28' E 010°35'9 9.1
2015-May-15 14:33N 58°19' E 010°36'11 9.0
2015-May-15 13:20N 58°08' E 010°39'7 8.9
2015-May-15 12:33N 58°02' E 010°41'9 9.0
2015-May-15 11:33N 57°52' E 010°42'10 0.8
2015-May-14 22:33N 57°43' E 010°36'0 0.0
2015-May-14 20:27N 57°43' E 010°36'0 0.0
2015-May-14 15:21N 57°43' E 010°36'0 0.0
2015-May-14 14:27N 57°43' E 010°36'0 0.1
2015-May-14 12:27N 57°43' E 010°36'  

Dump ship's entire track history